createdAt,value
2022-10-05T00:02:52.295Z,71.35
2022-10-05T00:05:53.985Z,71.02
2022-10-05T00:08:56.546Z,71.01
2022-10-05T00:11:58.394Z,71.06
2022-10-05T00:15:01.340Z,71.08
2022-10-05T00:18:09.860Z,71.26
2022-10-05T00:21:25.735Z,71.30
2022-10-05T00:24:27.286Z,71.19
2022-10-05T00:27:35.109Z,71.17
2022-10-05T00:30:36.606Z,71.19
2022-10-05T00:33:38.122Z,71.09
2022-10-05T00:36:40.049Z,71.12
2022-10-05T00:39:42.427Z,71.14
2022-10-05T00:42:50.079Z,71.21
2022-10-05T00:46:00.275Z,71.19
2022-10-05T00:49:30.697Z,71.39
2022-10-05T00:52:43.761Z,71.14
2022-10-05T00:56:19.921Z,71.18
2022-10-05T00:59:56.895Z,71.04
2022-10-05T01:03:14.249Z,71.23
2022-10-05T01:06:22.576Z,71.31
2022-10-05T01:09:46.506Z,71.17
2022-10-05T01:13:08.813Z,71.09
2022-10-05T01:16:18.025Z,71.15
2022-10-05T01:19:28.618Z,71.17
2022-10-05T01:22:48.191Z,71.12
2022-10-05T01:26:41.009Z,70.91
2022-10-05T01:30:03.766Z,71.17
2022-10-05T01:33:18.926Z,71.18
2022-10-05T01:36:39.737Z,71.27
2022-10-05T01:39:58.795Z,70.96
2022-10-05T01:43:11.880Z,71.37
2022-10-05T01:46:19.375Z,71.30
2022-10-05T01:49:38.713Z,71.41
2022-10-05T01:52:57.238Z,71.41
2022-10-05T01:56:36.055Z,71.17
2022-10-05T02:00:06.552Z,71.27
2022-10-05T02:03:21.857Z,71.20
2022-10-05T02:06:26.495Z,71.21
2022-10-05T02:09:37.383Z,71.46
2022-10-05T02:12:39.009Z,71.41
2022-10-05T02:15:46.186Z,71.46
2022-10-05T02:18:59.856Z,71.02
2022-10-05T02:22:08.655Z,71.19
2022-10-05T02:25:15.700Z,71.14
2022-10-05T02:28:27.442Z,71.22
2022-10-05T02:32:00.500Z,71.26
2022-10-05T02:35:09.380Z,71.25
2022-10-05T02:38:25.391Z,71.12
2022-10-05T02:41:51.245Z,71.23
2022-10-05T02:45:06.361Z,71.20
2022-10-05T02:48:28.768Z,71.17
2022-10-05T02:51:56.146Z,71.06
2022-10-05T02:55:23.201Z,71.36
2022-10-05T02:58:29.005Z,71.01
2022-10-05T03:01:46.811Z,70.88
2022-10-05T03:04:55.904Z,70.68
2022-10-05T03:08:02.411Z,71.13
2022-10-05T03:11:27.730Z,71.12
2022-10-05T03:14:59.869Z,70.61
2022-10-05T03:18:16.424Z,70.98
2022-10-05T03:21:36.620Z,70.94
2022-10-05T03:25:24.288Z,70.79
2022-10-05T03:28:53.894Z,70.91
2022-10-05T03:32:23.485Z,70.85
2022-10-05T03:35:33.152Z,70.80
2022-10-05T03:38:54.560Z,71.00
2022-10-05T03:42:16.652Z,70.63
2022-10-05T03:46:00.449Z,70.67
2022-10-05T03:49:25.125Z,70.74
2022-10-05T03:52:45.331Z,70.79
2022-10-05T03:55:50.928Z,70.64
2022-10-05T03:58:58.755Z,70.76
2022-10-05T04:02:04.853Z,70.80
2022-10-05T04:05:09.665Z,70.52
2022-10-05T04:08:25.002Z,70.79
2022-10-05T04:11:42.670Z,70.51
2022-10-05T04:14:49.337Z,70.78
2022-10-05T04:18:05.408Z,70.74
2022-10-05T04:21:23.516Z,70.54
2022-10-05T04:24:47.263Z,70.31
2022-10-05T04:28:07.565Z,70.38
2022-10-05T04:31:15.867Z,70.59
2022-10-05T04:35:02.269Z,70.43
2022-10-05T04:38:28.720Z,70.17
2022-10-05T04:42:13.840Z,70.35
2022-10-05T04:45:38.219Z,70.26
2022-10-05T04:49:00.034Z,70.23
2022-10-05T04:52:20.032Z,69.88
2022-10-05T04:55:30.259Z,70.10
2022-10-05T04:58:45.407Z,70.16
2022-10-05T05:02:00.076Z,70.17
2022-10-05T05:05:17.851Z,70.11
2022-10-05T05:08:55.246Z,70.30
2022-10-05T05:12:49.700Z,70.13
2022-10-05T05:16:02.135Z,70.40
2022-10-05T05:19:37.473Z,70.18
2022-10-05T05:22:45.031Z,70.27
2022-10-05T05:26:07.825Z,70.38
2022-10-05T05:29:27.336Z,70.21
2022-10-05T05:32:59.891Z,70.00
2022-10-05T05:36:26.780Z,70.07
2022-10-05T05:39:44.381Z,70.11
2022-10-05T05:43:02.418Z,69.99
2022-10-05T05:46:30.098Z,70.16
2022-10-05T05:49:54.717Z,70.24
2022-10-05T05:53:14.801Z,69.91
2022-10-05T05:56:30.914Z,69.59
2022-10-05T05:59:52.130Z,69.53
2022-10-05T06:03:09.093Z,69.66
2022-10-05T06:06:14.792Z,69.28
2022-10-05T06:09:25.899Z,69.43
2022-10-05T06:12:47.683Z,69.52
2022-10-05T06:15:58.653Z,69.74
2022-10-05T06:19:16.521Z,69.55
2022-10-05T06:22:30.157Z,69.37
2022-10-05T06:25:34.672Z,69.60
2022-10-05T06:28:36.791Z,69.12
2022-10-05T06:32:01.751Z,69.04
2022-10-05T06:35:41.681Z,68.75
2022-10-05T06:39:15.603Z,68.85
2022-10-05T06:42:34.225Z,68.90
2022-10-05T06:46:11.128Z,68.73
2022-10-05T06:49:43.234Z,68.37
2022-10-05T06:53:17.464Z,68.46
2022-10-05T06:56:36.298Z,68.61
2022-10-05T07:00:14.698Z,68.59
2022-10-05T07:03:35.718Z,68.51
2022-10-05T07:06:39.839Z,68.31
2022-10-05T07:10:01.331Z,68.43
2022-10-05T07:13:15.153Z,68.53
2022-10-05T07:16:32.052Z,68.67
2022-10-05T07:19:58.601Z,68.98
2022-10-05T07:23:25.031Z,68.58
2022-10-05T07:27:05.426Z,68.39
2022-10-05T07:30:11.724Z,68.44
2022-10-05T07:33:44.417Z,68.31
2022-10-05T07:37:31.245Z,68.09
2022-10-05T07:40:39.232Z,67.90
2022-10-05T07:44:02.026Z,67.78
2022-10-05T07:47:15.040Z,67.65
2022-10-05T07:50:22.477Z,67.43
2022-10-05T07:53:35.217Z,67.33
2022-10-05T07:56:41.723Z,67.13
2022-10-05T07:59:57.263Z,66.93
2022-10-05T08:03:22.563Z,66.69
2022-10-05T08:06:57.459Z,66.67
2022-10-05T08:10:19.191Z,66.39
2022-10-05T08:13:33.304Z,66.27
2022-10-05T08:16:38.432Z,66.05
2022-10-05T08:19:46.921Z,66.04
2022-10-05T08:22:59.078Z,65.89
2022-10-05T08:26:16.464Z,65.54
2022-10-05T08:29:31.003Z,65.44
2022-10-05T08:32:47.605Z,65.38
2022-10-05T08:36:03.429Z,65.56
2022-10-05T08:39:18.242Z,65.92
2022-10-05T08:42:32.702Z,66.68
2022-10-05T08:45:49.164Z,64.90
2022-10-05T08:49:24.378Z,59.08
2022-10-05T08:52:33.059Z,59.10
2022-10-05T08:55:56.115Z,59.80
2022-10-05T08:59:16.856Z,58.39
2022-10-05T09:02:38.923Z,56.82
2022-10-05T09:06:05.100Z,57.83
2022-10-05T09:09:20.644Z,58.03
2022-10-05T09:12:59.347Z,56.84
2022-10-05T09:16:35.591Z,55.73
2022-10-05T09:20:09.780Z,54.38
2022-10-05T09:23:15.920Z,53.40
2022-10-05T09:26:43.472Z,52.50
2022-10-05T09:30:16.537Z,52.77
2022-10-05T09:33:48.927Z,52.28
2022-10-05T09:37:17.965Z,53.33
2022-10-05T09:40:56.744Z,53.45
2022-10-05T09:44:16.197Z,53.32
2022-10-05T09:47:36.487Z,53.55
2022-10-05T09:50:37.917Z,52.59
2022-10-05T09:54:01.820Z,53.18
2022-10-05T09:57:33.720Z,52.28
2022-10-05T10:00:38.168Z,53.56
2022-10-05T10:03:42.969Z,54.74
2022-10-05T10:07:02.297Z,54.98
2022-10-05T10:10:15.693Z,53.67
2022-10-05T10:13:37.005Z,50.85
2022-10-05T10:17:01.948Z,52.80
2022-10-05T10:20:12.343Z,51.34
2022-10-05T10:23:28.415Z,51.04
2022-10-05T10:26:45.961Z,50.64
2022-10-05T10:30:03.800Z,49.00
2022-10-05T10:33:26.648Z,50.73
2022-10-05T10:37:01.612Z,51.34
2022-10-05T10:40:38.941Z,51.82
2022-10-05T10:43:55.412Z,51.78
2022-10-05T10:47:14.948Z,52.60
2022-10-05T10:50:35.046Z,52.82
2022-10-05T10:54:03.552Z,51.76
2022-10-05T10:57:16.879Z,53.04
2022-10-05T11:00:35.630Z,52.10
2022-10-05T11:03:55.432Z,53.21
2022-10-05T11:07:09.138Z,52.75
2022-10-05T11:10:20.029Z,53.13
2022-10-05T11:13:52.584Z,52.72
2022-10-05T11:17:03.155Z,51.29
2022-10-05T11:20:23.190Z,49.17
2022-10-05T11:23:52.608Z,47.84
2022-10-05T11:27:26.388Z,46.20
2022-10-05T11:30:51.169Z,45.46
2022-10-05T11:34:17.715Z,44.79
2022-10-05T11:37:36.272Z,45.66
2022-10-05T11:40:47.583Z,45.72
2022-10-05T11:44:40.001Z,45.26
2022-10-05T11:47:44.172Z,44.68
2022-10-05T11:51:04.387Z,46.12
2022-10-05T11:54:27.078Z,46.03
2022-10-05T11:57:37.636Z,45.68
2022-10-05T12:00:59.028Z,46.43
2022-10-05T12:04:19.877Z,46.83
2022-10-05T12:07:35.284Z,46.41
2022-10-05T12:10:55.004Z,46.24
2022-10-05T12:14:24.385Z,45.09
2022-10-05T12:17:42.667Z,46.13
2022-10-05T12:21:00.164Z,46.51
2022-10-05T12:24:01.609Z,47.11
2022-10-05T12:27:26.861Z,46.78
2022-10-05T12:30:47.209Z,46.44
2022-10-05T12:34:23.770Z,46.95
2022-10-05T12:37:48.515Z,46.58
2022-10-05T12:41:16.097Z,46.68
2022-10-05T12:44:43.027Z,46.24
2022-10-05T12:48:04.731Z,45.14
2022-10-05T12:51:19.657Z,45.60
2022-10-05T12:54:30.992Z,45.50
2022-10-05T12:57:45.311Z,42.97
2022-10-05T13:00:54.247Z,35.57
2022-10-05T13:04:31.750Z,33.87
2022-10-05T13:07:39.224Z,38.56
2022-10-05T13:10:45.264Z,41.56
2022-10-05T13:14:18.555Z,37.01
2022-10-05T13:17:41.065Z,33.40
2022-10-05T13:20:48.809Z,33.81
2022-10-05T13:24:08.378Z,38.78
2022-10-05T13:27:40.711Z,40.54
2022-10-05T13:31:01.096Z,42.08
2022-10-05T13:34:33.242Z,41.70
2022-10-05T13:37:37.746Z,42.52
2022-10-05T13:40:51.485Z,41.97
2022-10-05T13:43:52.819Z,42.46
2022-10-05T13:47:11.604Z,42.49
2022-10-05T13:50:25.833Z,41.81
2022-10-05T13:53:42.225Z,42.05
2022-10-05T13:56:49.041Z,42.07
2022-10-05T13:59:57.532Z,41.58
2022-10-05T14:03:00.895Z,41.48
2022-10-05T14:09:34.892Z,41.78
2022-10-05T14:12:42.576Z,41.84
2022-10-05T14:16:04.407Z,40.83
2022-10-05T14:19:06.025Z,37.56
2022-10-05T14:22:14.713Z,35.20
2022-10-05T14:25:18.049Z,34.64
2022-10-05T14:28:34.107Z,34.49
2022-10-05T14:31:37.046Z,34.74
2022-10-05T14:34:56.235Z,34.73
2022-10-05T14:38:09.587Z,34.31
2022-10-05T14:41:11.035Z,34.52
2022-10-05T14:44:15.588Z,33.77
2022-10-05T14:47:22.561Z,32.99
2022-10-05T14:50:31.400Z,33.30
2022-10-05T14:53:40.816Z,32.63
2022-10-05T14:57:05.328Z,32.80
2022-10-05T15:00:14.277Z,33.15
2022-10-05T15:03:42.281Z,32.04
2022-10-05T15:07:16.707Z,32.74
2022-10-05T15:10:36.232Z,32.94
2022-10-05T15:13:41.771Z,33.25
2022-10-05T15:16:44.186Z,33.23
2022-10-05T15:19:55.510Z,33.35
2022-10-05T15:23:24.856Z,33.25
2022-10-05T15:26:36.101Z,32.95
2022-10-05T15:29:56.372Z,32.87
2022-10-05T15:33:14.417Z,32.83
2022-10-05T15:36:35.615Z,33.93
2022-10-05T15:39:48.887Z,35.30
2022-10-05T15:42:55.254Z,36.13
2022-10-05T15:46:15.857Z,37.00
2022-10-05T15:49:33.755Z,37.67
2022-10-05T15:52:43.433Z,38.85
2022-10-05T15:55:55.489Z,39.99
2022-10-05T15:59:07.038Z,40.96
2022-10-05T16:02:18.964Z,41.50
2022-10-05T16:05:49.151Z,42.53
2022-10-05T16:09:19.751Z,42.97
2022-10-05T16:12:46.392Z,42.11
2022-10-05T16:16:16.737Z,42.87
2022-10-05T16:19:28.629Z,43.65
2022-10-05T16:22:44.938Z,44.09
2022-10-05T16:26:04.512Z,44.85
2022-10-05T16:29:14.926Z,45.61
2022-10-05T16:32:18.678Z,45.84
2022-10-05T16:35:55.392Z,46.55
2022-10-05T16:39:03.143Z,46.72
2022-10-05T16:42:13.641Z,47.28
2022-10-05T16:45:45.618Z,47.94
2022-10-05T16:49:38.472Z,48.38
2022-10-05T16:52:44.990Z,48.63
2022-10-05T16:55:49.697Z,49.13
2022-10-05T16:58:53.979Z,49.17
2022-10-05T17:02:14.985Z,49.29
2022-10-05T17:05:29.895Z,49.06
2022-10-05T17:08:52.577Z,49.70
2022-10-05T17:12:10.393Z,50.09
2022-10-05T17:15:52.643Z,50.32
2022-10-05T17:18:54.196Z,51.11
2022-10-05T17:22:03.042Z,51.13
2022-10-05T17:25:04.701Z,51.31
2022-10-05T17:28:22.970Z,52.02
2022-10-05T17:31:28.105Z,52.28
2022-10-05T17:34:36.725Z,52.66
2022-10-05T17:37:43.884Z,52.76
2022-10-05T17:41:00.527Z,52.90
2022-10-05T17:44:13.248Z,53.44
2022-10-05T17:47:16.097Z,53.16
2022-10-05T17:51:02.477Z,53.52
2022-10-05T17:54:37.724Z,53.66
2022-10-05T17:57:39.622Z,53.81
2022-10-05T18:01:04.353Z,54.36
2022-10-05T18:04:11.754Z,54.56
2022-10-05T18:07:22.489Z,55.17
2022-10-05T18:10:28.791Z,55.65
2022-10-05T18:13:46.124Z,55.71
2022-10-05T18:17:42.042Z,55.75
2022-10-05T18:21:08.662Z,55.97
2022-10-05T18:24:14.012Z,56.64
2022-10-05T18:27:24.717Z,57.00
2022-10-05T18:30:40.491Z,57.32
2022-10-05T18:34:11.679Z,57.58
2022-10-05T18:37:40.006Z,57.92
2022-10-05T18:40:52.643Z,58.62
2022-10-05T18:44:16.030Z,59.11
2022-10-05T18:47:54.981Z,59.45
2022-10-05T18:51:42.308Z,59.73
2022-10-05T18:54:54.760Z,60.22
2022-10-05T19:27:07.207Z,53.25
2022-10-05T19:30:27.114Z,56.03
2022-10-05T19:33:42.293Z,57.67
2022-10-05T19:37:16.427Z,59.26
2022-10-05T19:40:26.697Z,60.21
2022-10-05T19:43:51.932Z,61.12
2022-10-05T19:47:00.001Z,62.01
2022-10-05T19:50:19.808Z,62.37
2022-10-05T19:53:45.716Z,62.79
2022-10-05T19:56:50.397Z,63.06
2022-10-05T19:59:57.822Z,63.29
2022-10-05T20:03:16.915Z,63.68
2022-10-05T20:06:20.863Z,63.87
2022-10-05T20:09:23.644Z,63.91
2022-10-05T20:12:51.584Z,60.75
2022-10-05T20:16:35.936Z,59.92
2022-10-05T20:19:57.500Z,60.11
2022-10-05T20:23:21.192Z,59.85
2022-10-05T20:27:05.151Z,60.54
2022-10-05T20:30:08.315Z,60.82
2022-10-05T20:33:14.605Z,61.69
2022-10-05T20:36:16.229Z,62.20
2022-10-05T20:39:18.756Z,62.44
2022-10-05T20:42:21.191Z,62.67
2022-10-05T20:45:22.760Z,62.94
2022-10-05T20:48:26.186Z,63.31
2022-10-05T20:51:28.911Z,63.86
2022-10-05T20:54:30.934Z,64.49
2022-10-05T20:57:32.610Z,64.62
2022-10-05T21:00:54.203Z,65.01
2022-10-05T21:03:55.973Z,65.50
2022-10-05T21:06:57.845Z,65.62
2022-10-05T21:09:59.570Z,65.83
2022-10-05T21:13:02.774Z,66.29
2022-10-05T21:16:08.606Z,66.65
2022-10-05T21:19:13.055Z,66.75
2022-10-05T21:22:14.731Z,67.02
2022-10-05T21:25:16.320Z,67.25
2022-10-05T21:28:18.466Z,67.47
2022-10-05T21:31:20.081Z,67.73
2022-10-05T21:34:21.706Z,68.08
2022-10-05T21:37:23.168Z,68.35
2022-10-05T21:40:24.719Z,68.53
2022-10-05T21:43:26.733Z,69.04
2022-10-05T21:46:29.572Z,69.39
2022-10-05T21:49:31.153Z,69.65
2022-10-05T21:52:34.288Z,70.04
2022-10-05T21:55:39.343Z,70.19
2022-10-05T21:58:44.641Z,70.46
2022-10-05T22:01:46.198Z,70.72
2022-10-05T22:04:47.689Z,70.90
2022-10-05T22:07:49.248Z,71.46
2022-10-05T22:10:51.106Z,71.43
2022-10-05T22:13:53.328Z,71.81
2022-10-05T22:16:54.879Z,71.90
2022-10-05T22:20:00.441Z,72.05
2022-10-05T22:23:02.000Z,72.29
2022-10-05T22:26:05.077Z,72.48
2022-10-05T22:29:06.753Z,72.58
2022-10-05T22:32:08.486Z,72.76
2022-10-05T22:35:11.810Z,72.96
2022-10-05T22:38:13.772Z,73.05
2022-10-05T22:41:18.146Z,73.26
2022-10-05T22:44:19.671Z,73.33
2022-10-05T22:47:21.165Z,73.36
2022-10-05T22:50:22.691Z,73.42
2022-10-05T22:53:24.174Z,73.77
2022-10-05T22:56:25.868Z,73.88
2022-10-05T22:59:27.599Z,73.88
2022-10-05T23:02:29.180Z,73.98
2022-10-05T23:05:30.681Z,74.27
2022-10-05T23:08:33.607Z,74.35
2022-10-05T23:11:35.080Z,74.65
2022-10-05T23:14:36.590Z,74.39
2022-10-05T23:17:39.217Z,74.38
2022-10-05T23:20:40.730Z,74.59
2022-10-05T23:23:47.201Z,74.53
2022-10-05T23:26:48.676Z,74.64
2022-10-05T23:29:50.113Z,74.78
2022-10-05T23:32:51.557Z,74.76
2022-10-05T23:35:59.173Z,74.82
2022-10-05T23:39:00.596Z,74.97
2022-10-05T23:42:02.117Z,75.09
2022-10-05T23:45:03.825Z,75.11
2022-10-05T23:48:05.292Z,75.21
2022-10-05T23:51:10.001Z,75.30
2022-10-05T23:54:11.476Z,75.21
2022-10-05T23:57:19.702Z,75.26
